createdAt,value
2019-01-13T00:02:01.039Z,24.90
2019-01-13T00:04:29.883Z,37.57
2019-01-13T00:06:58.947Z,25.63
2019-01-13T00:09:27.695Z,20.37
2019-01-13T00:11:56.552Z,21.87
2019-01-13T00:14:26.811Z,28.93
2019-01-13T00:16:54.134Z,29.50
2019-01-13T00:19:22.921Z,26.80
2019-01-13T00:21:51.732Z,26.60
2019-01-13T00:24:20.522Z,26.20
2019-01-13T00:26:49.311Z,36.20
2019-01-13T00:29:18.231Z,22.00
2019-01-13T00:31:47.016Z,25.63
2019-01-13T00:34:15.822Z,26.50
2019-01-13T00:36:44.603Z,29.73
2019-01-13T00:39:13.403Z,30.70
2019-01-13T00:41:42.189Z,26.30
2019-01-13T00:44:11.006Z,32.33
2019-01-13T00:46:39.787Z,26.13
2019-01-13T00:49:08.571Z,24.90
2019-01-13T00:51:37.446Z,33.57
2019-01-13T00:54:06.294Z,34.93
2019-01-13T00:56:35.083Z,21.13
2019-01-13T00:59:03.911Z,24.87
2019-01-13T01:01:32.802Z,23.07
2019-01-13T01:04:01.621Z,27.67
2019-01-13T01:06:30.547Z,28.67
2019-01-13T01:08:59.693Z,24.90
2019-01-13T01:11:28.581Z,31.43
2019-01-13T01:13:57.446Z,25.30
2019-01-13T01:16:26.259Z,30.50
2019-01-13T01:18:55.079Z,24.70
2019-01-13T01:21:23.891Z,20.73
2019-01-13T01:23:52.727Z,19.27
2019-01-13T01:26:21.512Z,25.17
2019-01-13T01:28:50.363Z,25.87
2019-01-13T01:31:19.171Z,16.90
2019-01-13T01:33:47.973Z,32.23
2019-01-13T01:36:16.812Z,16.27
2019-01-13T01:38:45.657Z,15.27
2019-01-13T01:41:14.466Z,25.67
2019-01-13T01:43:43.354Z,19.30
2019-01-13T01:46:12.143Z,17.33
2019-01-13T01:48:40.983Z,19.47
2019-01-13T01:51:09.811Z,23.53
2019-01-13T01:53:38.599Z,24.77
2019-01-13T01:56:07.409Z,23.10
2019-01-13T01:58:36.194Z,26.73
2019-01-13T02:01:05.039Z,21.27
2019-01-13T02:03:33.845Z,22.57
2019-01-13T02:06:03.430Z,20.93
2019-01-13T02:08:32.313Z,26.97
2019-01-13T02:11:01.207Z,23.77
2019-01-13T02:13:30.006Z,21.23
2019-01-13T02:15:58.867Z,27.53
2019-01-13T02:18:27.732Z,19.93
2019-01-13T02:20:56.515Z,19.03
2019-01-13T02:23:25.371Z,17.47
2019-01-13T02:25:54.227Z,17.57
2019-01-13T02:28:23.042Z,23.40
2019-01-13T02:30:51.917Z,18.77
2019-01-13T02:33:20.698Z,21.37
2019-01-13T02:35:49.549Z,22.33
2019-01-13T02:38:18.650Z,19.20
2019-01-13T02:40:47.449Z,19.47
2019-01-13T02:43:16.327Z,15.87
2019-01-13T02:45:45.113Z,20.40
2019-01-13T02:48:13.949Z,17.57
2019-01-13T02:50:42.744Z,17.00
2019-01-13T02:53:11.549Z,17.17
2019-01-13T02:55:40.389Z,15.87
2019-01-13T02:58:09.179Z,18.73
2019-01-13T03:00:38.000Z,17.47
2019-01-13T03:03:08.046Z,22.00
2019-01-13T03:05:37.736Z,18.57
2019-01-13T03:08:06.550Z,16.37
2019-01-13T03:10:35.335Z,21.97
2019-01-13T03:13:04.173Z,20.40
2019-01-13T03:15:33.056Z,14.97
2019-01-13T03:18:01.831Z,16.33
2019-01-13T03:20:30.651Z,19.47
2019-01-13T03:22:59.436Z,15.87
2019-01-13T03:25:28.232Z,18.83
2019-01-13T03:27:57.083Z,17.17
2019-01-13T03:30:25.956Z,18.97
2019-01-13T03:32:55.652Z,21.17
2019-01-13T03:35:24.630Z,19.20
2019-01-13T03:37:53.407Z,25.40
2019-01-13T03:40:24.070Z,21.83
2019-01-13T03:42:52.933Z,23.10
2019-01-13T03:45:21.803Z,24.27
2019-01-13T03:47:50.581Z,29.83
2019-01-13T03:50:21.109Z,23.97
2019-01-13T03:52:53.262Z,33.20
2019-01-13T03:55:19.862Z,26.47
2019-01-13T03:57:48.659Z,24.47
2019-01-13T04:00:20.208Z,24.50
2019-01-13T04:02:49.601Z,34.23
2019-01-13T04:05:18.390Z,26.77
2019-01-13T04:07:47.178Z,27.63
2019-01-13T04:10:16.290Z,23.43
2019-01-13T04:12:45.206Z,24.90
2019-01-13T04:15:21.928Z,24.47
2019-01-13T04:17:50.715Z,28.40
2019-01-13T04:20:19.525Z,30.30
2019-01-13T04:22:48.342Z,24.37
2019-01-13T04:25:17.267Z,28.57
2019-01-13T04:27:46.146Z,29.63
2019-01-13T04:30:14.957Z,25.83
2019-01-13T04:32:43.748Z,29.63
2019-01-13T04:35:12.568Z,27.37
2019-01-13T04:37:41.346Z,26.33
2019-01-13T04:40:10.250Z,24.30
2019-01-13T04:42:39.053Z,27.63
2019-01-13T04:45:07.841Z,26.60
2019-01-13T04:47:36.686Z,32.07
2019-01-13T04:50:05.765Z,30.90
2019-01-13T04:52:34.570Z,33.77
2019-01-13T04:55:03.385Z,34.03
2019-01-13T04:57:32.276Z,37.23
2019-01-13T05:00:01.161Z,35.73
2019-01-13T05:02:30.727Z,33.50
2019-01-13T05:04:59.538Z,30.93
2019-01-13T05:07:28.331Z,33.97
2019-01-13T05:09:57.187Z,32.10
2019-01-13T05:12:27.809Z,31.73
2019-01-13T05:14:54.860Z,30.03
2019-01-13T05:17:23.707Z,26.30
2019-01-13T05:19:52.561Z,28.93
2019-01-13T05:22:21.450Z,30.10
2019-01-13T05:24:50.318Z,29.73
2019-01-13T05:27:19.087Z,29.37
2019-01-13T05:29:47.927Z,29.37
2019-01-13T05:32:16.754Z,28.27
2019-01-13T05:34:45.598Z,27.57
2019-01-13T05:37:14.438Z,27.07
2019-01-13T05:39:43.297Z,23.70
2019-01-13T05:42:12.139Z,24.97
2019-01-13T05:44:41.024Z,20.70
2019-01-13T05:47:09.891Z,20.43
2019-01-13T05:49:38.779Z,18.67
2019-01-13T05:52:07.575Z,19.03
2019-01-13T05:54:36.395Z,20.30
2019-01-13T05:57:05.187Z,13.67
2019-01-13T05:59:34.038Z,13.90
2019-01-13T06:02:02.955Z,13.10
2019-01-13T06:04:31.775Z,12.33
2019-01-13T06:07:00.662Z,18.57
2019-01-13T06:09:29.448Z,10.43
2019-01-13T06:11:58.331Z,12.63
2019-01-13T06:14:27.120Z,8.13
2019-01-13T06:16:55.887Z,11.90
2019-01-13T06:19:24.935Z,7.77
2019-01-13T06:21:53.723Z,6.10
2019-01-13T06:24:22.511Z,8.93
2019-01-13T06:26:51.444Z,5.97
2019-01-13T06:29:20.263Z,10.73
2019-01-13T06:31:56.110Z,4.23
2019-01-13T06:34:18.051Z,7.03
2019-01-13T06:36:46.844Z,7.93
2019-01-13T06:39:15.612Z,6.63
2019-01-13T06:41:44.483Z,7.83
2019-01-13T06:44:13.316Z,11.43
2019-01-13T06:46:42.104Z,10.10
2019-01-13T06:49:10.960Z,11.53
2019-01-13T06:51:39.759Z,10.90
2019-01-13T06:54:08.619Z,8.47
2019-01-13T06:56:37.506Z,11.47
2019-01-13T06:59:06.306Z,10.83
2019-01-13T07:01:35.156Z,16.97
2019-01-13T07:04:06.174Z,9.43
2019-01-13T07:06:34.967Z,9.43
2019-01-13T07:09:04.366Z,13.20
2019-01-13T07:11:33.274Z,17.43
2019-01-13T07:14:02.139Z,15.73
2019-01-13T07:16:30.995Z,9.40
2019-01-13T07:18:59.785Z,18.80
2019-01-13T07:21:28.671Z,12.27
2019-01-13T07:23:57.464Z,17.20
2019-01-13T07:26:26.253Z,18.03
2019-01-13T07:28:55.120Z,18.70
2019-01-13T07:31:23.919Z,13.97
2019-01-13T07:33:52.711Z,23.03
2019-01-13T07:36:21.530Z,20.07
2019-01-13T07:38:50.330Z,19.17
2019-01-13T07:41:19.138Z,26.70
2019-01-13T07:43:47.930Z,26.80
2019-01-13T07:46:16.711Z,23.33
2019-01-13T07:48:45.520Z,38.97
2019-01-13T07:51:14.363Z,22.93
2019-01-13T07:53:43.146Z,28.70
2019-01-13T07:56:12.511Z,32.07
2019-01-13T07:58:41.808Z,33.97
2019-01-13T08:01:10.583Z,29.43
2019-01-13T08:03:39.371Z,30.33
2019-01-13T08:06:08.219Z,34.63
2019-01-13T08:08:37.071Z,26.50
2019-01-13T08:11:05.870Z,28.77
2019-01-13T08:13:34.643Z,29.63
2019-01-13T08:16:03.418Z,33.93
2019-01-13T08:18:33.149Z,28.47
2019-01-13T08:21:02.059Z,25.97
2019-01-13T08:23:30.906Z,38.90
2019-01-13T08:25:59.667Z,43.20
2019-01-13T08:28:28.558Z,29.37
2019-01-13T08:30:57.377Z,26.23
2019-01-13T08:33:26.201Z,30.00
2019-01-13T08:35:55.039Z,29.60
2019-01-13T08:38:23.919Z,30.83
2019-01-13T08:40:52.713Z,30.43
2019-01-13T08:43:21.505Z,28.60
2019-01-13T08:45:50.615Z,27.53
2019-01-13T08:48:19.827Z,31.23
2019-01-13T08:50:49.344Z,27.73
2019-01-13T08:53:18.123Z,22.83
2019-01-13T08:55:46.912Z,25.97
2019-01-13T08:58:15.701Z,25.77
2019-01-13T09:00:45.363Z,29.30
2019-01-13T09:03:14.243Z,27.90
2019-01-13T09:05:43.084Z,20.40
2019-01-13T09:08:11.986Z,32.97
2019-01-13T09:10:40.831Z,33.10
2019-01-13T09:13:11.794Z,32.37
2019-01-13T09:15:40.602Z,31.90
2019-01-13T09:18:09.405Z,32.37
2019-01-13T09:20:38.236Z,31.97
2019-01-13T09:23:07.108Z,29.63
2019-01-13T09:25:37.058Z,30.90
2019-01-13T09:28:07.007Z,31.27
2019-01-13T09:30:35.783Z,24.77
2019-01-13T09:33:05.637Z,25.17
2019-01-13T09:35:35.199Z,24.33
2019-01-13T09:38:06.677Z,32.70
2019-01-13T09:40:34.527Z,25.87
2019-01-13T09:43:03.643Z,31.30
2019-01-13T09:45:32.556Z,31.67
2019-01-13T09:48:01.400Z,24.90
2019-01-13T09:50:30.255Z,26.57
2019-01-13T09:52:59.053Z,21.37
2019-01-13T09:55:27.865Z,21.47
2019-01-13T09:57:56.659Z,19.40
2019-01-13T10:00:31.291Z,24.67
2019-01-13T10:03:00.144Z,13.90
2019-01-13T10:05:28.983Z,15.30
2019-01-13T10:07:57.827Z,21.33
2019-01-13T10:10:26.696Z,22.00
2019-01-13T10:12:55.515Z,16.07
2019-01-13T10:15:24.340Z,14.27
2019-01-13T10:17:53.120Z,20.33
2019-01-13T10:20:22.038Z,13.60
2019-01-13T10:22:50.843Z,14.57
2019-01-13T10:25:19.637Z,17.67
2019-01-13T10:27:48.525Z,13.33
2019-01-13T10:30:20.815Z,15.17
2019-01-13T10:32:54.706Z,18.33
2019-01-13T10:35:18.426Z,11.57
2019-01-13T10:37:47.271Z,13.83
2019-01-13T10:40:17.986Z,19.07
2019-01-13T10:42:46.836Z,14.40
2019-01-13T10:45:15.723Z,11.47
2019-01-13T10:47:44.498Z,12.40
2019-01-13T10:50:18.113Z,12.53
2019-01-13T10:52:46.876Z,12.37
2019-01-13T10:55:15.995Z,17.23
2019-01-13T10:57:44.863Z,18.03
2019-01-13T11:00:17.476Z,10.13
2019-01-13T11:02:46.278Z,13.17
2019-01-13T11:05:15.100Z,14.20
2019-01-13T11:07:43.952Z,8.10
2019-01-13T11:10:13.658Z,9.80
2019-01-13T11:12:42.514Z,9.70
2019-01-13T11:15:11.451Z,12.20
2019-01-13T11:17:40.235Z,10.90
2019-01-13T11:20:15.576Z,12.90
2019-01-13T11:22:44.415Z,10.07
2019-01-13T11:25:13.316Z,11.90
2019-01-13T11:27:42.211Z,11.47
2019-01-13T11:30:13.899Z,12.30
2019-01-13T11:32:42.800Z,9.90
2019-01-13T11:35:11.977Z,13.57
2019-01-13T11:37:40.751Z,11.90
2019-01-13T11:40:11.404Z,14.03
2019-01-13T11:42:40.194Z,11.73
2019-01-13T11:45:09.696Z,18.50
2019-01-13T11:47:38.496Z,11.30
2019-01-13T11:50:10.441Z,16.77
2019-01-13T11:52:39.311Z,15.57
2019-01-13T11:55:09.638Z,16.47
2019-01-13T11:57:38.461Z,15.93
2019-01-13T12:00:12.331Z,15.03
2019-01-13T12:02:41.267Z,17.50
2019-01-13T12:05:10.053Z,15.70
2019-01-13T12:07:38.839Z,15.87
2019-01-13T12:10:09.967Z,14.77
2019-01-13T12:12:38.782Z,17.27
2019-01-13T12:15:10.295Z,17.17
2019-01-13T12:17:39.073Z,15.50
2019-01-13T12:20:09.939Z,21.73
2019-01-13T12:22:38.799Z,17.27
2019-01-13T12:25:08.838Z,21.67
2019-01-13T12:27:37.648Z,18.87
2019-01-13T12:30:08.147Z,25.33
2019-01-13T12:32:36.947Z,18.63
2019-01-13T12:35:05.831Z,30.90
2019-01-13T12:37:34.628Z,24.83
2019-01-13T12:40:03.463Z,28.03
2019-01-13T12:42:32.291Z,26.67
2019-01-13T12:45:01.100Z,22.77
2019-01-13T12:47:29.991Z,23.73
2019-01-13T12:49:58.849Z,40.10
2019-01-13T12:52:27.698Z,30.97
2019-01-13T12:54:56.528Z,28.17
2019-01-13T12:57:25.312Z,32.13
2019-01-13T12:59:54.176Z,24.47
2019-01-13T13:02:23.026Z,27.27
2019-01-13T13:04:51.834Z,21.77
2019-01-13T13:07:20.739Z,24.43
2019-01-13T13:09:49.617Z,24.40
2019-01-13T13:12:18.489Z,31.67
2019-01-13T13:14:47.331Z,28.33
2019-01-13T13:17:16.124Z,28.13
2019-01-13T13:19:44.945Z,28.07
2019-01-13T13:22:13.733Z,23.33
2019-01-13T13:24:42.576Z,21.27
2019-01-13T13:27:11.495Z,17.97
2019-01-13T13:29:40.346Z,20.17
2019-01-13T13:32:09.155Z,20.77
2019-01-13T13:34:37.923Z,23.00
2019-01-13T13:37:06.728Z,22.30
2019-01-13T13:39:35.506Z,20.70
2019-01-13T13:42:04.295Z,18.60
2019-01-13T13:44:33.133Z,22.47
2019-01-13T13:47:01.976Z,17.63
2019-01-13T13:49:30.959Z,16.80
2019-01-13T13:51:59.760Z,14.27
2019-01-13T13:54:28.657Z,21.03
2019-01-13T13:56:57.451Z,17.07
2019-01-13T13:59:26.291Z,18.30
2019-01-13T14:01:55.088Z,23.30
2019-01-13T14:04:23.907Z,27.27
2019-01-13T14:06:52.697Z,19.10
2019-01-13T14:09:21.567Z,28.37
2019-01-13T14:11:50.344Z,20.97
2019-01-13T14:14:19.147Z,23.70
2019-01-13T14:16:48.039Z,17.47
2019-01-13T14:19:16.839Z,22.27
2019-01-13T14:21:45.633Z,18.67
2019-01-13T14:24:14.505Z,26.10
2019-01-13T14:26:43.275Z,17.63
2019-01-13T14:29:12.222Z,20.17
2019-01-13T14:31:41.092Z,17.60
2019-01-13T14:34:09.851Z,21.17
2019-01-13T14:36:38.661Z,24.40
2019-01-13T14:39:08.384Z,28.20
2019-01-13T14:41:37.167Z,28.50
2019-01-13T14:44:06.027Z,25.43
2019-01-13T14:46:34.941Z,24.90
2019-01-13T14:49:03.547Z,22.17
2019-01-13T14:51:32.375Z,25.67
2019-01-13T14:54:01.231Z,23.87
2019-01-13T14:56:30.086Z,26.43
2019-01-13T14:59:00.047Z,23.17
2019-01-13T15:01:28.858Z,24.13
2019-01-13T15:04:00.018Z,27.73
2019-01-13T15:06:26.592Z,18.80
2019-01-13T15:08:55.623Z,30.27
2019-01-13T15:11:24.451Z,20.23
2019-01-13T15:13:53.291Z,28.03
2019-01-13T15:16:22.120Z,27.47
2019-01-13T15:18:50.968Z,21.10
2019-01-13T15:21:19.763Z,28.50
2019-01-13T15:23:48.682Z,25.40
2019-01-13T15:26:17.526Z,30.37
2019-01-13T15:28:46.420Z,23.13
2019-01-13T15:31:15.315Z,23.93
2019-01-13T15:33:44.151Z,19.57
2019-01-13T15:36:13.027Z,32.73
2019-01-13T15:38:41.833Z,20.20
2019-01-13T15:41:10.707Z,20.37
2019-01-13T15:43:39.566Z,25.73
2019-01-13T15:46:08.360Z,20.67
2019-01-13T15:48:37.172Z,30.70
2019-01-13T15:51:05.971Z,25.43
2019-01-13T15:53:34.818Z,25.37
2019-01-13T15:56:03.646Z,21.83
2019-01-13T15:58:32.566Z,22.23
2019-01-13T16:01:01.495Z,21.97
2019-01-13T16:03:30.380Z,24.07
2019-01-13T16:05:59.219Z,19.17
2019-01-13T16:08:28.067Z,23.60
2019-01-13T16:10:56.957Z,19.07
2019-01-13T16:13:25.753Z,22.53
2019-01-13T16:15:54.996Z,18.40
2019-01-13T16:18:23.859Z,22.23
2019-01-13T16:20:52.691Z,28.73
2019-01-13T16:23:21.543Z,23.80
2019-01-13T16:25:50.369Z,22.83
2019-01-13T16:28:19.218Z,26.03
2019-01-13T16:30:48.012Z,18.30
2019-01-13T16:33:16.848Z,29.23
2019-01-13T16:35:45.706Z,26.23
2019-01-13T16:38:14.660Z,22.87
2019-01-13T16:40:47.490Z,17.03
2019-01-13T16:43:16.418Z,13.17
2019-01-13T16:45:45.380Z,24.27
2019-01-13T16:48:19.711Z,24.47
2019-01-13T16:50:49.553Z,27.60
2019-01-13T16:53:21.151Z,26.13
2019-01-13T16:55:50.004Z,17.47
2019-01-13T16:58:18.902Z,24.43
2019-01-13T17:00:47.772Z,25.77
2019-01-13T17:03:16.677Z,18.53
2019-01-13T17:05:45.847Z,17.80
2019-01-13T17:08:14.656Z,17.53
2019-01-13T17:10:43.453Z,11.37
2019-01-13T17:13:12.255Z,14.23
2019-01-13T17:15:41.067Z,17.73
2019-01-13T17:18:09.892Z,13.43
2019-01-13T17:20:38.706Z,10.07
2019-01-13T17:23:07.610Z,13.07
2019-01-13T17:25:36.524Z,9.63
2019-01-13T17:28:05.375Z,9.23
2019-01-13T17:30:35.354Z,7.57
2019-01-13T17:33:04.467Z,11.43
2019-01-13T17:35:33.291Z,12.10
2019-01-13T17:38:02.164Z,13.87
2019-01-13T17:40:30.969Z,11.27
2019-01-13T17:42:59.763Z,14.27
2019-01-13T17:45:31.256Z,16.17
2019-01-13T17:48:00.102Z,15.07
2019-01-13T17:50:28.944Z,10.10
2019-01-13T17:52:57.751Z,13.10
2019-01-13T17:55:27.743Z,13.43
2019-01-13T17:57:56.591Z,16.83
2019-01-13T18:00:34.334Z,10.90
2019-01-13T18:03:03.496Z,18.53
2019-01-13T18:05:32.332Z,14.50
2019-01-13T18:08:01.131Z,15.63
2019-01-13T18:10:29.996Z,17.97
2019-01-13T18:13:00.247Z,18.87
2019-01-13T18:15:29.219Z,24.77
2019-01-13T18:17:58.058Z,20.30
2019-01-13T18:20:26.836Z,13.03
2019-01-13T18:22:55.636Z,26.37
2019-01-13T18:25:24.456Z,26.73
2019-01-13T18:27:53.389Z,19.20
2019-01-13T18:30:23.351Z,24.37
2019-01-13T18:32:52.135Z,23.73
2019-01-13T18:35:21.487Z,20.63
2019-01-13T18:37:50.260Z,31.03
2019-01-13T18:40:19.383Z,29.73
2019-01-13T18:42:48.200Z,39.57
2019-01-13T18:45:17.022Z,32.57
2019-01-13T18:47:45.855Z,27.63
2019-01-13T18:50:16.547Z,35.77
2019-01-13T18:52:50.094Z,33.70
2019-01-13T18:55:18.939Z,27.40
2019-01-13T18:57:47.723Z,30.73
2019-01-13T19:00:18.747Z,30.40
2019-01-13T19:02:47.627Z,37.53
2019-01-13T19:05:18.364Z,16.57
2019-01-13T19:07:47.152Z,32.53
2019-01-13T19:10:23.610Z,30.00
2019-01-13T19:12:57.076Z,35.97
2019-01-13T19:15:25.864Z,24.33
2019-01-13T19:17:56.236Z,29.20
2019-01-13T19:20:28.296Z,38.37
2019-01-13T19:23:01.372Z,34.33
2019-01-13T19:25:32.220Z,34.07
2019-01-13T19:28:01.011Z,39.43
2019-01-13T19:30:29.854Z,22.07
2019-01-13T19:32:58.633Z,26.13
2019-01-13T19:35:27.436Z,34.10
2019-01-13T19:37:56.342Z,25.93
2019-01-13T19:40:25.239Z,33.53
2019-01-13T19:42:54.035Z,42.83
2019-01-13T19:45:22.840Z,46.50
2019-01-13T19:47:51.668Z,27.97
2019-01-13T19:50:22.671Z,30.60
2019-01-13T19:52:51.495Z,32.83
2019-01-13T19:55:20.305Z,37.23
2019-01-13T19:57:49.095Z,36.00
2019-01-13T20:00:20.967Z,36.40
2019-01-13T20:02:49.570Z,38.00
2019-01-13T20:05:18.350Z,34.50
2019-01-13T20:07:47.240Z,29.77
2019-01-13T20:10:16.050Z,33.60
2019-01-13T20:12:44.863Z,39.33
2019-01-13T20:15:14.132Z,45.63
2019-01-13T20:17:43.604Z,33.70
2019-01-13T20:20:13.735Z,37.80
2019-01-13T20:22:42.523Z,42.60
2019-01-13T20:25:12.123Z,34.43
2019-01-13T20:27:40.934Z,43.00
2019-01-13T20:30:13.810Z,37.33
2019-01-13T20:32:43.666Z,30.90
2019-01-13T20:35:18.983Z,31.13
2019-01-13T20:37:41.343Z,36.27
2019-01-13T20:40:10.276Z,39.03
2019-01-13T20:42:39.115Z,40.33
2019-01-13T20:45:12.448Z,38.60
2019-01-13T20:47:41.236Z,27.03
2019-01-13T20:50:11.707Z,40.83
2019-01-13T20:52:40.595Z,39.53
2019-01-13T20:55:09.874Z,42.07
2019-01-13T20:57:38.721Z,45.27
2019-01-13T21:00:10.647Z,43.03
2019-01-13T21:02:39.924Z,48.10
2019-01-13T21:05:08.695Z,38.03
2019-01-13T21:07:37.499Z,33.30
2019-01-13T21:10:07.852Z,49.70
2019-01-13T21:12:36.634Z,31.13
2019-01-13T21:15:07.301Z,29.77
2019-01-13T21:17:36.382Z,39.10
2019-01-13T21:20:06.573Z,35.93
2019-01-13T21:22:35.698Z,34.97
2019-01-13T21:25:05.715Z,43.07
2019-01-13T21:27:34.495Z,40.87
2019-01-13T21:30:03.531Z,37.00
2019-01-13T21:32:32.471Z,33.90
2019-01-13T21:35:01.432Z,41.10
2019-01-13T21:37:30.096Z,34.27
2019-01-13T21:39:58.964Z,32.07
2019-01-13T21:42:27.750Z,43.43
2019-01-13T21:44:56.567Z,36.60
2019-01-13T21:47:25.369Z,24.23
2019-01-13T21:49:54.226Z,16.63
2019-01-13T21:52:23.083Z,16.97
2019-01-13T21:54:51.916Z,11.40
2019-01-13T21:57:21.444Z,13.90
2019-01-13T21:59:50.251Z,29.07
2019-01-13T22:02:19.054Z,35.43
2019-01-13T22:04:47.843Z,28.43
2019-01-13T22:07:16.623Z,32.63
2019-01-13T22:09:45.428Z,22.27
2019-01-13T22:12:20.980Z,29.57
2019-01-13T22:14:49.815Z,27.27
2019-01-13T22:17:18.630Z,36.53
2019-01-13T22:19:47.460Z,31.13
2019-01-13T22:22:16.231Z,34.50
2019-01-13T22:24:45.033Z,24.97
2019-01-13T22:27:13.816Z,28.03
2019-01-13T22:29:42.679Z,21.30
2019-01-13T22:32:11.463Z,26.53
2019-01-13T22:37:15.335Z,14.57
2019-01-13T22:39:44.140Z,22.23
2019-01-13T22:42:12.928Z,16.00
2019-01-13T22:44:41.705Z,17.07
2019-01-13T22:47:10.489Z,8.93
2019-01-13T22:49:39.263Z,12.30
2019-01-13T22:52:08.101Z,11.20
2019-01-13T22:54:36.896Z,8.77
2019-01-13T22:57:05.743Z,13.23
2019-01-13T22:59:34.604Z,19.83
2019-01-13T23:02:03.423Z,21.60
2019-01-13T23:04:32.239Z,16.83
2019-01-13T23:07:01.025Z,21.90
2019-01-13T23:09:29.867Z,20.77
2019-01-13T23:11:58.767Z,19.53
2019-01-13T23:14:27.576Z,28.53
2019-01-13T23:16:56.358Z,17.13
2019-01-13T23:19:25.131Z,25.03
2019-01-13T23:21:54.036Z,22.10
2019-01-13T23:24:22.935Z,21.40
2019-01-13T23:26:51.768Z,18.63
2019-01-13T23:29:20.586Z,22.83
2019-01-13T23:31:49.412Z,35.93
2019-01-13T23:34:18.183Z,21.93
2019-01-13T23:36:46.955Z,22.43
2019-01-13T23:39:15.755Z,33.93
2019-01-13T23:41:44.585Z,36.47
2019-01-13T23:44:13.431Z,28.17
2019-01-13T23:46:42.199Z,34.63
2019-01-13T23:49:10.995Z,33.63
2019-01-13T23:51:39.774Z,30.50
2019-01-13T23:54:08.603Z,32.87
2019-01-13T23:56:37.461Z,33.53
2019-01-13T23:59:06.239Z,36.60
